Aviation Digital Data Service (ADDS)

Output produced by METARs form (0635 UTC 27 March 2017)
found at http://www.aviationweather.gov/adds/metars/
 
KHBG 270545Z 2706/2806 17008KT P6SM OVC010 
     FM270700 17004KT 4SM BR BKN007 
     FM270900 18003KT 2SM BR OVC003 
     FM271500 18006KT P6SM BKN010 
     FM271700 19013G20KT P6SM SCT050 
     FM272300 19011KT P6SM VCTS BKN050CB
       
KHIE 270522Z 2706/2806 VRB03KT 4SM -FZRA BR OVC025 
     FM271300 12009G15KT 4SM -RA BR OVC035 
     FM271800 12005KT 2SM -RA BR OVC015 
     FM280000 VRB03KT 4SM -SHRA BR OVC020
       
TAF KHIF 270500Z 2705/2811 11009KT 9999 FEW080 BKN110 QNH2986INS 
     BECMG 2711/2712 20012KT 9000 -RA SCT015 BKN020 QNH2985INS 
     BECMG 2717/2718 23010KT 9000 -RA BKN010 OVC045 QNH2986INS 
     BECMG 2802/2803 33012G18KT 8000 -RA BR SCT005 BKN010 QNH2990INS TX13/2722Z TN04/2713Z
       
KHIO 270520Z 2706/2806 19005KT P6SM -SHRA SCT025 BKN050 
     TEMPO 2712/2716 5SM SHRA BR BKN025 OVC050
       
KHKS 270545Z 2706/2806 18008KT P6SM FEW090 
     FM270630 18007KT P6SM BKN012 
     FM270800 18007KT P6SM BKN008 
     FM271300 18010G19KT P6SM BKN015 
     FM271600 19013G19KT P6SM BKN025 
     FM271900 20013G20KT P6SM SCT040 
     FM272200 20011KT P6SM VCTS BKN050CB
       
KHKY 270632Z 2707/2806 19005KT 6SM BR VCSH BKN025 OVC040 
     FM270800 18004KT 3SM BR VCSH SCT005 BKN015 
     TEMPO 2709/2713 2SM BR BKN005 OVC012 
     FM271400 22005KT P6SM BKN025 
     FM271800 21008KT P6SM BKN040 
     PROB30 2719/2724 4SM -TSRA OVC025CB 
     FM280000 20004KT P6SM VCSH BKN050
       
KHLG 270533Z 2706/2806 20006KT P6SM -SHRA OVC025 
     FM270900 21005KT P6SM VCSH OVC015 
     FM271400 23005KT P6SM OVC045 
     FM280200 18003KT P6SM VCSH BKN090
       
KHLN 270520Z 2706/2806 25006KT P6SM VCSH SCT040 OVC060 
     TEMPO 2706/2709 -SHRA BKN035 
     FM271000 26008KT P6SM SCT070 BKN150 
     FM271800 29010G18KT P6SM VCSH SCT040 OVC060 
     PROB30 2721/2803 -SHRA BKN030
       
TAF AMD KHMN 270625Z 2706/2810 VRB06KT 9999 FEW200 QNH2997INS 
     BECMG 2716/2717 19012KT 9999 SKC QNH2990INS 
     BECMG 2720/2721 20012G20KT 9999 FEW120 510009 QNH2980INS 
     TEMPO 2722/2801 21015G25KT 520009 
     BECMG 2802/2803 19012KT 9999 BKN100 QNH2981INS TX24/2721Z TN07/2713Z
       
KHND 270528Z 2706/2806 19010KT P6SM FEW150 FEW250 
     FM271700 24013G22KT P6SM SCT100 
     FM272300 29015G25KT P6SM BKN100 
     FM280200 32020G30KT P6SM SCT100
       
KHOB 270539Z 2706/2806 33011KT P6SM SKC 
     FM270900 02008KT P6SM SKC 
     FM272200 18009KT P6SM SKC
       
KHON 270520Z 2706/2806 00000KT P6SM BKN100 
     TEMPO 2710/2714 5SM BR 
     FM271700 VRB03KT P6SM SCT100
       
TAF KHOP 270000Z 2700/2806 VRB06KT 9999 FEW030 SCT060 QNH2990INS 
     BECMG 2715/2716 19015G25KT 9999 SCT030 SCT180 510201 QNH2982INS 
     BECMG 2721/2722 21015G25KT 6000 -SHRA BKN020 QNH2983INS 
     TEMPO 2722/2803 22025G35KT 3200 -TSRAGR OVC015CB 
     BECMG 2802/2803 VRB06KT 8000 -SHRA OVC007 QNH2983INS TX22/2720Z TN12/2712Z
       
KHOT 270533Z 2706/2806 15006KT P6SM VCTS BKN050CB OVC100 
     TEMPO 2706/2710 VRB20G35KT 3SM TSRA BR OVC025CB 
     FM271100 18008KT P6SM VCSH OVC025 
     FM271500 23008G15KT P6SM OVC030 
     FM271800 25010G20KT P6SM SCT030 BKN250
       
KHOU 270627Z 2706/2806 15005KT P6SM BKN016 BKN029 
     FM271600 18008KT P6SM BKN018 
     FM271800 18010KT P6SM BKN035
       
KHPN 270541Z 2706/2806 08007KT 1SM -DZ BR OVC004 
     FM270800 08004KT 1SM -RADZ BR OVC002 
     FM271600 14005KT 2SM -RA BR OVC007 
     FM272000 21003KT P6SM BKN025 
     FM280200 20008KT 5SM BR BKN040 
     FM280400 VRB03KT 1/2SM FG OVC015 AMD NOT SKED
       
KHQM 270535Z 2706/2806 17007KT P6SM VCSH SCT018 BKN035 OVC050 
     TEMPO 2706/2710 4SM -SHRA BR SCT018 OVC028 
     FM271000 17007KT P6SM VCSH BKN022 OVC040 
     TEMPO 2710/2714 -SHRA 
     FM271400 19008KT P6SM -SHRA OVC022 
     FM272000 22013KT P6SM -SHRA BKN028 OVC050 
     FM280300 19007KT P6SM VCSH BKN035 BKN050 
     PROB30 2803/2806 -SHRA
       
KHRL 270520Z 2706/2806 16010KT P6SM FEW015 
     FM271600 15017G25KT P6SM SCT050 
     FM280000 15012KT P6SM SCT025
       
KHRO 270533Z 2706/2806 33008KT P6SM -RA VCTS BKN050CB OVC100 
     TEMPO 2706/2708 3SM -TSRA BR BKN025CB OVC040 
     FM270800 18008KT 5SM -SHRA BR VCTS OVC015CB 
     FM271400 19008KT P6SM OVC015 
     FM271800 27010KT P6SM BKN025 BKN080
       
TAF KHST 270000Z 2700/2806 07006KT 9999 FEW025 QNH3000INS 
     BECMG 2705/2706 VRB06KT 9999 SCT010 BKN025 QNH3003INS 
     BECMG 2714/2715 06009KT 9999 SCT030 QNH3002INS TX26/2717Z TN18/2710Z
       
KHSV 270520Z 2706/2806 VRB04KT P6SM SCT250 
     FM270800 17005KT P6SM SCT025 BKN040 
     FM271300 18010KT P6SM BKN025 
     FM271900 19012G18KT P6SM SCT040 
     FM280000 18008KT P6SM VCTS SCT050CB
       
KHTS 270538Z 2706/2806 21004KT P6SM OVC080 
     FM270900 19003KT 6SM BR BKN050 OVC080 
     FM271300 21005KT P6SM BKN050 
     FM280000 17003KT P6SM SHRA VCTS BKN050CB
       
KHUF 270525Z 2706/2806 VRB03KT P6SM BKN080 
     FM271200 VRB03KT P6SM BKN025 
     FM271300 13004KT P6SM BKN035 
     FM271500 12006KT P6SM VCSH OVC090 
     FM271800 12010KT 6SM -SHRA OVC060 
     FM272100 17008KT P6SM -SHRA VCTS OVC050CB 
     FM280000 17007KT P6SM -SHRA BKN050 
     FM280500 28005KT 5SM -SHRA OVC015
       
KHUM 270522Z 2706/2806 14007KT P6SM BKN015 OVC025 
     FM270900 17005KT 3SM BR BKN012 
     FM271500 17010KT P6SM SCT045
       
KHUT 270630Z 2707/2806 03012KT P6SM OVC007 
     TEMPO 2707/2709 6SM -SHRA SCT007 OVC035 
     FM270900 01010KT 5SM BR SCT003 OVC005 
     FM271500 36009KT P6SM BKN009 
     FM271700 36009KT P6SM BKN015 
     FM272000 01007KT P6SM SCT025
       
KHVR 270520Z 2706/2806 08007KT P6SM SCT050 OVC080 
     FM271400 30011KT P6SM SCT090 BKN180 
     FM280000 VRB05KT P6SM VCSH SCT050 BKN080
       
KHYA 270544Z 2706/2806 10007KT P6SM VCSH OVC028 
     FM271300 12011G22KT 4SM BR VCSH OVC010 
     FM271500 14011G20KT 3SM -RA BR OVC010 
     FM272200 18010KT 3/4SM -SHRA BR OVC003 
     FM272300 20010KT 1/2SM FG VCSH OVC003 
     FM280300 24005KT 5SM BR OVC003
       
KHYR 270558Z 2706/2806 00000KT P6SM VCSH BKN004 OVC023 
     TEMPO 2709/2713 3SM BR OVC004 
     FM271500 04005KT P6SM BKN010 
     FM271900 03005KT P6SM BKN050 BKN100 
     FM280100 VRB02KT P6SM SCT060
       
KHYS 270520Z 2706/2806 34006KT P6SM OVC008 
     FM270800 35006KT P6SM OVC003 
     FM271200 35005KT 2SM BR BKN003 
     FM271600 36005KT 6SM BR SCT015 
     FM271700 01004KT P6SM SCT050 
     FM272100 08004KT P6SM FEW200 AMD NOT SKED
       
KHUL 270520Z 2706/2806 21004KT P6SM SKC 
     FM270800 12004KT P6SM OVC050 
     FM271100 12006KT 2SM -SN OVC025 
     FM271400 13008KT 1SM -SN OVC008 
     FM280000 13008KT 1SM -FZRASNPL OVC025